Time;durP1;ratioP1;P1;durP2;ratioP2;P2;SDS_P1;SDS_P2;PMS_P1;PMS_P2;Temp;Humidity;BMP_temperature;BMP_pressure;BME280_temperature;BME280_humidity;BME280_pressure;Samples;Min_cycle;Max_cycle;Signal;HPM_P1;HPM_P2
2021/04/05 16:47:06;;;;;;;5.80;1.47;;;;;;;;;;5041683;28;20584;-49
2021/04/05 16:49:34;;;;;;;2.97;1.00;;;;;;;;;;5034987;28;20194;-49
2021/04/05 16:52:08;;;;;;;1.83;0.80;;;;;;;;;;5038923;28;20235;-48
2021/04/05 16:55:01;;;;;;;5.87;1.30;;;;;;;;;;5034591;28;20198;-48
2021/04/05 16:57:50;;;;;;;2.97;0.93;;;;;;;;;;5042913;28;20240;-49
2021/04/05 17:00:19;;;;;;;3.03;1.10;;;;;;;;;;5036383;28;20190;-51
2021/04/05 17:02:54;;;;;;;6.30;1.57;;;;;;;;;;5031512;28;20210;-50
2021/04/05 17:05:35;;;;;;;8.07;2.10;;;;;;;;;;5039865;28;20251;-49
2021/04/05 17:08:09;;;;;;;4.53;1.90;;;;;;;;;;5035304;28;20440;-50
2021/04/05 17:10:42;;;;;;;6.47;2.20;;;;;;;;;;5044099;28;20719;-48
2021/04/05 17:13:10;;;;;;;4.27;1.53;;;;;;;;;;5039276;28;20210;-50
2021/04/05 17:15:37;;;;;;;4.30;1.40;;;;;;;;;;5041271;28;20182;-50
2021/04/05 17:18:05;;;;;;;2.80;0.97;;;;;;;;;;5039165;28;20190;-49
2021/04/05 17:20:33;;;;;;;5.73;1.27;;;;;;;;;;5035634;28;20195;-48
2021/04/05 17:23:03;;;;;;;4.47;1.40;;;;;;;;;;5036702;28;20219;-49
2021/04/05 17:25:36;;;;;;;5.87;1.23;;;;;;;;;;5038376;28;20260;-50
2021/04/05 17:28:12;;;;;;;5.50;1.60;;;;;;;;;;5039732;28;20204;-49
2021/04/05 17:30:45;;;;;;;6.13;1.77;;;;;;;;;;5032146;28;20535;-51
2021/04/05 17:33:15;;;;;;;7.93;1.90;;;;;;;;;;5040291;28;20297;-48
2021/04/05 17:35:47;;;;;;;5.33;1.43;;;;;;;;;;5035226;28;20669;-50
2021/04/05 17:38:15;;;;;;;7.73;1.93;;;;;;;;;;5034227;28;20183;-48
2021/04/05 17:40:59;;;;;;;5.53;1.47;;;;;;;;;;5032245;28;20205;-48
2021/04/05 17:43:33;;;;;;;8.93;1.47;;;;;;;;;;5029524;28;20613;-49
2021/04/05 17:46:09;;;;;;;5.50;1.20;;;;;;;;;;5043231;28;20221;-50
2021/04/05 17:49:00;;;;;;;4.33;1.33;;;;;;;;;;5037604;28;20197;-49
2021/04/05 17:51:43;;;;;;;6.83;1.20;;;;;;;;;;5036580;28;20186;-50
2021/04/05 17:54:19;;;;;;;4.17;1.07;;;;;;;;;;5041702;28;20212;-49
2021/04/05 17:56:54;;;;;;;4.17;1.50;;;;;;;;;;5032227;28;20224;-48
2021/04/05 17:59:43;;;;;;;7.40;1.70;;;;;;;;;;5028900;28;20666;-49
2021/04/05 18:02:15;;;;;;;1.50;0.90;;;;;;;;;;5028673;28;20540;-48
2021/04/05 18:04:50;;;;;;;3.30;0.90;;;;;;;;;;5028372;28;20690;-50
2021/04/05 18:07:32;;;;;;;3.70;1.50;;;;;;;;;;5028603;28;20265;-48
2021/04/05 18:10:06;;;;;;;2.87;1.10;;;;;;;;;;5025323;28;20182;-49
2021/04/05 18:12:47;;;;;;;4.53;1.30;;;;;;;;;;5023735;28;20182;-50
2021/04/05 18:15:21;;;;;;;7.57;1.67;;;;;;;;;;5043235;28;20633;-49
2021/04/05 18:18:32;;;;;;;5.67;2.00;;;;;;;;;;5020789;28;20212;-49
2021/04/05 18:21:22;;;;;;;7.60;2.17;;;;;;;;;;5024819;28;20653;-49
2021/04/05 18:24:00;;;;;;;9.83;2.80;;;;;;;;;;5024240;28;20211;-49
2021/04/05 18:26:42;;;;;;;6.77;2.00;;;;;;;;;;5018092;28;20797;-49
2021/04/05 18:29:39;;;;;;;8.37;3.27;;;;;;;;;;5019968;28;20191;-49
2021/04/05 18:32:29;;;;;;;10.53;2.87;;;;;;;;;;5016101;28;20204;-50
2021/04/05 18:35:01;;;;;;;6.03;2.33;;;;;;;;;;5014415;28;20262;-50
2021/04/05 18:37:30;;;;;;;5.17;1.80;;;;;;;;;;5017134;28;20650;-49
2021/04/05 18:39:56;;;;;;;4.70;2.10;;;;;;;;;;5025348;28;20178;-48
2021/04/05 18:42:25;;;;;;;5.47;2.20;;;;;;;;;;5023874;28;20302;-51
2021/04/05 18:45:01;;;;;;;3.97;1.70;;;;;;;;;;5026538;28;20583;-48
2021/04/05 18:47:47;;;;;;;5.83;2.10;;;;;;;;;;5029811;28;20191;-48
2021/04/05 18:50:40;;;;;;;3.33;1.40;;;;;;;;;;5024857;28;20224;-49
2021/04/05 18:53:19;;;;;;;6.67;1.70;;;;;;;;;;5023543;28;20237;-48
2021/04/05 18:55:51;;;;;;;5.93;1.87;;;;;;;;;;5025077;28;20658;-50
2021/04/05 18:58:17;;;;;;;5.93;1.87;;;;;;;;;;5026867;28;20708;-50
2021/04/05 19:00:49;;;;;;;4.37;1.43;;;;;;;;;;5027609;28;20183;-50
2021/04/05 19:03:24;;;;;;;7.13;1.77;;;;;;;;;;5027582;28;20207;-48
2021/04/05 19:06:11;;;;;;;4.90;1.43;;;;;;;;;;5025539;28;20700;-49
2021/04/05 19:08:55;;;;;;;5.37;1.77;;;;;;;;;;5012438;28;20191;-49
2021/04/05 19:11:26;;;;;;;5.23;1.40;;;;;;;;;;5026532;28;20674;-50
2021/04/05 19:14:16;;;;;;;3.10;1.23;;;;;;;;;;5014344;28;20233;-49
2021/04/05 19:16:52;;;;;;;7.20;2.00;;;;;;;;;;5023519;28;20182;-50
2021/04/05 19:19:34;;;;;;;5.67;2.10;;;;;;;;;;5026336;28;20198;-50
2021/04/05 19:22:02;;;;;;;6.77;1.80;;;;;;;;;;5047877;28;20187;-49
2021/04/05 19:24:51;;;;;;;6.17;1.70;;;;;;;;;;5027574;28;20800;-49
2021/04/05 19:27:53;;;;;;;5.47;1.77;;;;;;;;;;5027696;28;20314;-49
2021/04/05 19:30:40;;;;;;;6.37;1.60;;;;;;;;;;5023276;28;20214;-51
2021/04/05 19:33:25;;;;;;;4.97;1.63;;;;;;;;;;5023410;28;20203;-51
2021/04/05 19:36:09;;;;;;;3.80;1.30;;;;;;;;;;5028096;28;20186;-50
2021/04/05 19:38:53;;;;;;;4.40;1.17;;;;;;;;;;5023798;28;20193;-49
2021/04/05 19:41:40;;;;;;;5.13;1.60;;;;;;;;;;5023558;28;20218;-49
2021/04/05 19:44:26;;;;;;;4.87;1.63;;;;;;;;;;5020788;28;20313;-50
2021/04/05 19:47:01;;;;;;;6.90;2.80;;;;;;;;;;5025291;28;20297;-49
2021/04/05 19:50:09;;;;;;;5.33;1.97;;;;;;;;;;5015396;28;20213;-49
2021/04/05 19:53:09;;;;;;;4.53;1.40;;;;;;;;;;5023985;28;20322;-49
2021/04/05 19:55:44;;;;;;;6.30;2.10;;;;;;;;;;5025801;28;20218;-49
2021/04/05 19:58:31;;;;;;;4.47;1.63;;;;;;;;;;5016644;28;20194;-49
2021/04/05 20:01:16;;;;;;;15.47;2.43;;;;;;;;;;5019847;28;20187;-49
2021/04/05 20:04:13;;;;;;;5.70;2.53;;;;;;;;;;5026087;28;20732;-50
2021/04/05 20:06:51;;;;;;;6.60;2.03;;;;;;;;;;5022727;28;20619;-50
2021/04/05 20:09:54;;;;;;;6.10;2.37;;;;;;;;;;5019807;28;20187;-49
2021/04/05 20:12:56;;;;;;;6.43;2.00;;;;;;;;;;5020582;28;20186;-50
2021/04/05 20:15:30;;;;;;;8.87;2.83;;;;;;;;;;5044330;28;20209;-50
2021/04/05 20:18:04;;;;;;;9.43;2.47;;;;;;;;;;5021270;28;20270;-49
2021/04/05 20:20:39;;;;;;;5.27;2.30;;;;;;;;;;5038106;28;20281;-49
2021/04/05 20:23:13;;;;;;;7.13;2.63;;;;;;;;;;5021289;28;20286;-49
2021/04/05 20:25:47;;;;;;;5.83;2.30;;;;;;;;;;5018844;28;20201;-49
2021/04/05 20:28:24;;;;;;;3.03;1.80;;;;;;;;;;5019645;28;20186;-49
2021/04/05 20:31:20;;;;;;;4.83;2.30;;;;;;;;;;5036108;28;20293;-49
2021/04/05 20:33:56;;;;;;;4.47;2.10;;;;;;;;;;5019591;28;20590;-50
2021/04/05 20:36:31;;;;;;;7.23;2.20;;;;;;;;;;5017158;28;20182;-50
2021/04/05 20:39:11;;;;;;;7.27;1.80;;;;;;;;;;5021899;28;20212;-48
2021/04/05 20:41:45;;;;;;;3.33;1.77;;;;;;;;;;5022674;28;20182;-50
2021/04/05 20:44:19;;;;;;;2.70;1.70;;;;;;;;;;5025852;28;20798;-50
2021/04/05 20:46:49;;;;;;;4.53;1.90;;;;;;;;;;5020759;28;20248;-48
2021/04/05 20:49:38;;;;;;;4.30;1.33;;;;;;;;;;5023606;28;20186;-51
2021/04/05 20:52:08;;;;;;;1.57;0.90;;;;;;;;;;5024438;28;20693;-49
2021/04/05 20:54:51;;;;;;;2.80;1.07;;;;;;;;;;5014875;28;20977;-48
2021/04/05 20:57:22;;;;;;;1.17;0.50;;;;;;;;;;5034068;28;20198;-49
2021/04/05 21:00:08;;;;;;;1.47;0.87;;;;;;;;;;5025114;28;20197;-51
2021/04/05 21:02:37;;;;;;;1.57;0.47;;;;;;;;;;5036407;28;20233;-50
2021/04/05 21:05:04;;;;;;;1.63;0.60;;;;;;;;;;5024395;28;20289;-49
2021/04/05 21:07:31;;;;;;;1.53;0.77;;;;;;;;;;5013941;28;20193;-50
2021/04/05 21:10:08;;;;;;;1.93;0.80;;;;;;;;;;5014863;28;20171;-49
2021/04/05 21:12:39;;;;;;;1.90;0.73;;;;;;;;;;5024481;28;20451;-50
2021/04/05 21:15:10;;;;;;;1.93;0.80;;;;;;;;;;5021631;28;20190;-50
2021/04/05 21:17:50;;;;;;;2.30;0.87;;;;;;;;;;5021748;28;20179;-49
2021/04/05 21:20:33;;;;;;;3.00;1.23;;;;;;;;;;5012767;28;20662;-49
2021/04/05 21:23:04;;;;;;;1.10;0.60;;;;;;;;;;5018116;28;20198;-51
2021/04/05 21:25:30;;;;;;;2.63;0.90;;;;;;;;;;5022693;28;20227;-50
2021/04/05 21:28:00;;;;;;;1.30;0.53;;;;;;;;;;5023219;28;20704;-50
2021/04/05 21:30:33;;;;;;;2.90;0.70;;;;;;;;;;5015850;28;20198;-49
2021/04/05 21:33:09;;;;;;;1.57;0.70;;;;;;;;;;5015252;28;20206;-48
2021/04/05 21:35:41;;;;;;;1.63;0.77;;;;;;;;;;5023398;28;20318;-49
2021/04/05 21:38:14;;;;;;;1.67;1.00;;;;;;;;;;5023395;28;20569;-50
2021/04/05 21:40:43;;;;;;;3.20;0.90;;;;;;;;;;5019577;28;20187;-49
2021/04/05 21:43:34;;;;;;;2.80;0.90;;;;;;;;;;5016673;28;20402;-49
2021/04/05 21:46:24;;;;;;;7.03;1.37;;;;;;;;;;5023858;28;20204;-48
2021/04/05 21:48:59;;;;;;;2.17;0.87;;;;;;;;;;5020469;28;20183;-50
2021/04/05 21:51:39;;;;;;;1.67;1.10;;;;;;;;;;5021721;28;20708;-49
2021/04/05 21:54:26;;;;;;;2.00;1.00;;;;;;;;;;5020228;28;20261;-50
2021/04/05 21:56:56;;;;;;;4.13;1.13;;;;;;;;;;5025583;28;20269;-49
2021/04/05 21:59:25;;;;;;;2.30;1.03;;;;;;;;;;5017217;28;20191;-50
2021/04/05 22:01:58;;;;;;;3.43;1.27;;;;;;;;;;5028698;28;20229;-49
2021/04/05 22:04:26;;;;;;;3.23;1.57;;;;;;;;;;5022932;28;20649;-51
2021/04/05 22:06:52;;;;;;;4.47;1.40;;;;;;;;;;5023699;28;20724;-49
2021/04/05 22:09:26;;;;;;;2.60;1.10;;;;;;;;;;5020378;28;20195;-50
2021/04/05 22:11:52;;;;;;;4.23;1.20;;;;;;;;;;5017101;28;20187;-49
2021/04/05 22:14:23;;;;;;;3.40;1.20;;;;;;;;;;5021653;28;20679;-48
2021/04/05 22:16:50;;;;;;;3.93;1.30;;;;;;;;;;5025472;28;20775;-52
2021/04/05 22:19:23;;;;;;;3.70;1.23;;;;;;;;;;5027229;28;20186;-48
2021/04/05 22:21:50;;;;;;;4.73;1.07;;;;;;;;;;5025727;28;20194;-49
2021/04/05 22:24:24;;;;;;;1.97;1.00;;;;;;;;;;5020715;28;20199;-49
2021/04/05 22:26:57;;;;;;;5.37;1.10;;;;;;;;;;5024009;28;20210;-49
2021/04/05 22:29:26;;;;;;;5.67;1.50;;;;;;;;;;5025180;28;20187;-48
2021/04/05 22:31:55;;;;;;;3.90;1.63;;;;;;;;;;5025895;28;20182;-48
2021/04/05 22:34:21;;;;;;;5.00;1.90;;;;;;;;;;5019944;28;20255;-51
2021/04/05 22:36:55;;;;;;;5.47;1.60;;;;;;;;;;5021167;28;20651;-50
2021/04/05 22:39:37;;;;;;;5.83;1.20;;;;;;;;;;5021933;28;20179;-49
2021/04/05 22:42:19;;;;;;;4.93;1.47;;;;;;;;;;5019640;28;20190;-48
2021/04/05 22:44:57;;;;;;;4.20;1.13;;;;;;;;;;5022767;28;20705;-48
2021/04/05 22:47:35;;;;;;;5.67;1.40;;;;;;;;;;5020964;28;20219;-48
2021/04/05 22:50:22;;;;;;;3.67;1.20;;;;;;;;;;5022158;28;20269;-49
2021/04/05 22:55:23;;;;;;;6.43;1.60;;;;;;;;;;5020789;28;20186;-48
2021/04/05 22:57:51;;;;;;;6.57;1.73;;;;;;;;;;5024072;28;20795;-48
2021/04/05 23:00:27;;;;;;;4.50;1.27;;;;;;;;;;5021566;28;20627;-48
2021/04/05 23:03:11;;;;;;;6.23;1.57;;;;;;;;;;5023181;28;20228;-48
2021/04/05 23:05:37;;;;;;;6.27;1.50;;;;;;;;;;5022060;28;20203;-50
2021/04/05 23:08:10;;;;;;;4.80;1.40;;;;;;;;;;5017599;28;20193;-48
2021/04/05 23:10:43;;;;;;;2.13;0.93;;;;;;;;;;5024275;28;20206;-49
2021/04/05 23:13:09;;;;;;;3.30;1.20;;;;;;;;;;5020361;28;20207;-49
2021/04/05 23:15:36;;;;;;;5.40;1.17;;;;;;;;;;5021372;28;20185;-48
2021/04/05 23:18:16;;;;;;;3.03;1.27;;;;;;;;;;5022222;28;20191;-49
2021/04/05 23:20:46;;;;;;;4.10;1.10;;;;;;;;;;5019379;28;20270;-49
2021/04/05 23:23:18;;;;;;;6.23;1.60;;;;;;;;;;5023057;28;20210;-49
2021/04/05 23:25:48;;;;;;;8.80;1.47;;;;;;;;;;5020159;28;20241;-50
2021/04/05 23:28:24;;;;;;;5.10;1.20;;;;;;;;;;5021266;28;20286;-49
2021/04/05 23:30:55;;;;;;;9.03;2.40;;;;;;;;;;5021233;28;20191;-49
2021/04/05 23:33:28;;;;;;;2.70;1.13;;;;;;;;;;5027123;28;20214;-50
2021/04/05 23:35:57;;;;;;;3.37;1.30;;;;;;;;;;5022207;28;20182;-48
2021/04/05 23:38:28;;;;;;;4.50;1.30;;;;;;;;;;5018082;28;20197;-48
2021/04/05 23:40:57;;;;;;;5.43;1.47;;;;;;;;;;5023457;28;20182;-49
2021/04/05 23:43:25;;;;;;;6.23;1.30;;;;;;;;;;5018551;28;20206;-48
2021/04/05 23:45:52;;;;;;;4.50;1.43;;;;;;;;;;5018845;28;20215;-49
2021/04/05 23:48:38;;;;;;;4.77;1.50;;;;;;;;;;5020572;28;20194;-48
2021/04/05 23:51:07;;;;;;;3.70;1.70;;;;;;;;;;5056605;28;20209;-47
2021/04/05 23:53:35;;;;;;;2.67;1.50;;;;;;;;;;5024060;28;20250;-49
2021/04/05 23:56:01;;;;;;;5.10;1.30;;;;;;;;;;5020138;28;20705;-49
2021/04/05 23:58:29;;;;;;;4.83;1.40;;;;;;;;;;5017958;28;20187;-48
